sensor_id;sensor_type;location;lat;lon;timestamp;P1;durP1;ratioP1;P2;durP2;ratioP2
78752;SDS011;68072;51.688;7.842;2023-07-31T00:00:03;5.97;;;3.23;;
78752;SDS011;68072;51.688;7.842;2023-07-31T00:02:28;6.68;;;3.42;;
78752;SDS011;68072;51.688;7.842;2023-07-31T00:04:53;10.47;;;2.97;;
78752;SDS011;68072;51.688;7.842;2023-07-31T00:07:19;5.73;;;3.77;;
78752;SDS011;68072;51.688;7.842;2023-07-31T00:09:44;12.60;;;3.50;;
78752;SDS011;68072;51.688;7.842;2023-07-31T00:12:09;5.00;;;3.23;;
78752;SDS011;68072;51.688;7.842;2023-07-31T00:14:34;3.87;;;2.30;;
78752;SDS011;68072;51.688;7.842;2023-07-31T00:16:59;4.77;;;2.90;;
78752;SDS011;68072;51.688;7.842;2023-07-31T00:19:25;3.83;;;2.10;;
78752;SDS011;68072;51.688;7.842;2023-07-31T00:21:50;2.60;;;2.20;;
78752;SDS011;68072;51.688;7.842;2023-07-31T00:24:15;3.10;;;2.23;;
78752;SDS011;68072;51.688;7.842;2023-07-31T00:26:40;2.33;;;1.97;;
78752;SDS011;68072;51.688;7.842;2023-07-31T00:29:06;2.07;;;1.73;;
78752;SDS011;68072;51.688;7.842;2023-07-31T00:31:31;3.28;;;1.88;;
78752;SDS011;68072;51.688;7.842;2023-07-31T00:33:56;1.87;;;1.50;;
78752;SDS011;68072;51.688;7.842;2023-07-31T00:36:21;1.63;;;1.50;;
78752;SDS011;68072;51.688;7.842;2023-07-31T00:38:47;3.58;;;1.60;;
78752;SDS011;68072;51.688;7.842;2023-07-31T00:41:12;1.70;;;1.60;;
78752;SDS011;68072;51.688;7.842;2023-07-31T00:43:37;1.90;;;1.70;;
78752;SDS011;68072;51.688;7.842;2023-07-31T00:46:03;1.83;;;1.73;;
78752;SDS011;68072;51.688;7.842;2023-07-31T00:48:28;2.00;;;1.80;;
78752;SDS011;68072;51.688;7.842;2023-07-31T00:50:53;2.30;;;1.60;;
78752;SDS011;68072;51.688;7.842;2023-07-31T00:53:18;2.17;;;1.70;;
78752;SDS011;68072;51.688;7.842;2023-07-31T00:55:44;1.60;;;1.50;;
78752;SDS011;68072;51.688;7.842;2023-07-31T00:58:09;1.70;;;1.60;;
78752;SDS011;68072;51.688;7.842;2023-07-31T01:00:34;2.00;;;1.57;;
78752;SDS011;68072;51.688;7.842;2023-07-31T01:03:00;6.50;;;1.77;;
78752;SDS011;68072;51.688;7.842;2023-07-31T01:05:29;3.60;;;1.70;;
78752;SDS011;68072;51.688;7.842;2023-07-31T01:08:07;2.30;;;1.75;;
78752;SDS011;68072;51.688;7.842;2023-07-31T01:10:41;2.45;;;1.98;;
78752;SDS011;68072;51.688;7.842;2023-07-31T01:13:10;5.45;;;2.33;;
78752;SDS011;68072;51.688;7.842;2023-07-31T01:15:36;2.80;;;2.53;;
78752;SDS011;68072;51.688;7.842;2023-07-31T01:18:01;5.30;;;2.90;;
78752;SDS011;68072;51.688;7.842;2023-07-31T01:20:26;8.10;;;2.60;;
78752;SDS011;68072;51.688;7.842;2023-07-31T01:28:05;6.85;;;2.80;;
78752;SDS011;68072;51.688;7.842;2023-07-31T01:30:34;5.65;;;2.95;;
78752;SDS011;68072;51.688;7.842;2023-07-31T01:33:02;4.82;;;2.67;;
78752;SDS011;68072;51.688;7.842;2023-07-31T01:35:32;4.90;;;2.97;;
78752;SDS011;68072;51.688;7.842;2023-07-31T01:37:58;3.53;;;2.80;;
78752;SDS011;68072;51.688;7.842;2023-07-31T01:40:23;7.20;;;3.77;;
78752;SDS011;68072;51.688;7.842;2023-07-31T01:42:48;8.47;;;3.37;;
78752;SDS011;68072;51.688;7.842;2023-07-31T01:45:13;5.40;;;3.43;;
78752;SDS011;68072;51.688;7.842;2023-07-31T01:47:39;8.27;;;3.83;;
78752;SDS011;68072;51.688;7.842;2023-07-31T01:50:04;10.23;;;4.87;;
78752;SDS011;68072;51.688;7.842;2023-07-31T01:52:29;6.97;;;4.10;;
78752;SDS011;68072;51.688;7.842;2023-07-31T01:54:55;10.55;;;5.72;;
78752;SDS011;68072;51.688;7.842;2023-07-31T01:57:20;12.67;;;6.23;;
78752;SDS011;68072;51.688;7.842;2023-07-31T01:59:45;8.17;;;4.73;;
78752;SDS011;68072;51.688;7.842;2023-07-31T02:02:10;13.57;;;7.40;;
78752;SDS011;68072;51.688;7.842;2023-07-31T02:04:36;15.13;;;5.77;;
78752;SDS011;68072;51.688;7.842;2023-07-31T02:07:01;18.90;;;5.37;;
78752;SDS011;68072;51.688;7.842;2023-07-31T02:09:26;11.93;;;5.90;;
78752;SDS011;68072;51.688;7.842;2023-07-31T02:11:51;13.80;;;6.40;;
78752;SDS011;68072;51.688;7.842;2023-07-31T02:14:17;12.87;;;5.90;;
78752;SDS011;68072;51.688;7.842;2023-07-31T02:16:42;16.90;;;6.60;;
78752;SDS011;68072;51.688;7.842;2023-07-31T02:19:07;15.45;;;5.38;;
78752;SDS011;68072;51.688;7.842;2023-07-31T02:21:33;15.43;;;6.83;;
78752;SDS011;68072;51.688;7.842;2023-07-31T02:23:58;14.00;;;5.60;;
78752;SDS011;68072;51.688;7.842;2023-07-31T02:26:23;10.57;;;5.83;;
78752;SDS011;68072;51.688;7.842;2023-07-31T02:28:48;15.07;;;5.73;;
78752;SDS011;68072;51.688;7.842;2023-07-31T02:31:14;14.10;;;5.27;;
78752;SDS011;68072;51.688;7.842;2023-07-31T02:33:39;15.87;;;4.53;;
78752;SDS011;68072;51.688;7.842;2023-07-31T02:36:04;14.13;;;3.90;;
78752;SDS011;68072;51.688;7.842;2023-07-31T02:38:29;14.00;;;5.30;;
78752;SDS011;68072;51.688;7.842;2023-07-31T02:40:55;13.07;;;5.07;;
78752;SDS011;68072;51.688;7.842;2023-07-31T02:43:20;14.97;;;5.67;;
78752;SDS011;68072;51.688;7.842;2023-07-31T02:45:45;13.33;;;6.13;;
78752;SDS011;68072;51.688;7.842;2023-07-31T02:48:10;15.03;;;4.97;;
78752;SDS011;68072;51.688;7.842;2023-07-31T02:50:36;12.97;;;5.13;;
78752;SDS011;68072;51.688;7.842;2023-07-31T02:53:01;14.55;;;5.55;;
78752;SDS011;68072;51.688;7.842;2023-07-31T02:55:26;13.60;;;5.00;;
78752;SDS011;68072;51.688;7.842;2023-07-31T02:57:52;20.37;;;5.90;;
78752;SDS011;68072;51.688;7.842;2023-07-31T03:00:17;19.48;;;5.47;;
78752;SDS011;68072;51.688;7.842;2023-07-31T03:02:43;13.30;;;5.07;;
78752;SDS011;68072;51.688;7.842;2023-07-31T03:05:08;13.67;;;4.90;;
78752;SDS011;68072;51.688;7.842;2023-07-31T03:07:33;12.77;;;5.43;;
78752;SDS011;68072;51.688;7.842;2023-07-31T03:09:58;11.20;;;4.13;;
78752;SDS011;68072;51.688;7.842;2023-07-31T03:12:24;14.03;;;5.20;;
78752;SDS011;68072;51.688;7.842;2023-07-31T03:14:49;12.03;;;4.67;;
78752;SDS011;68072;51.688;7.842;2023-07-31T03:17:14;9.13;;;4.03;;
78752;SDS011;68072;51.688;7.842;2023-07-31T03:19:40;6.28;;;3.70;;
78752;SDS011;68072;51.688;7.842;2023-07-31T03:22:05;11.10;;;3.50;;
78752;SDS011;68072;51.688;7.842;2023-07-31T03:24:30;10.95;;;4.15;;
78752;SDS011;68072;51.688;7.842;2023-07-31T03:26:56;10.15;;;4.10;;
78752;SDS011;68072;51.688;7.842;2023-07-31T03:29:21;11.63;;;4.53;;
78752;SDS011;68072;51.688;7.842;2023-07-31T03:31:46;11.73;;;3.87;;
78752;SDS011;68072;51.688;7.842;2023-07-31T03:34:11;5.77;;;3.00;;
78752;SDS011;68072;51.688;7.842;2023-07-31T03:36:36;11.57;;;3.90;;
78752;SDS011;68072;51.688;7.842;2023-07-31T03:39:02;15.40;;;4.23;;
78752;SDS011;68072;51.688;7.842;2023-07-31T03:43:53;13.05;;;3.85;;
78752;SDS011;68072;51.688;7.842;2023-07-31T03:46:21;11.18;;;3.47;;
78752;SDS011;68072;51.688;7.842;2023-07-31T03:48:46;5.65;;;2.65;;
78752;SDS011;68072;51.688;7.842;2023-07-31T03:51:12;8.73;;;3.50;;
78752;SDS011;68072;51.688;7.842;2023-07-31T03:53:37;13.73;;;3.63;;
78752;SDS011;68072;51.688;7.842;2023-07-31T03:56:02;12.63;;;4.10;;
78752;SDS011;68072;51.688;7.842;2023-07-31T03:58:27;9.33;;;3.80;;
78752;SDS011;68072;51.688;7.842;2023-07-31T04:00:53;12.17;;;3.60;;
78752;SDS011;68072;51.688;7.842;2023-07-31T04:03:18;9.67;;;4.17;;
78752;SDS011;68072;51.688;7.842;2023-07-31T04:05:44;10.63;;;3.73;;
78752;SDS011;68072;51.688;7.842;2023-07-31T04:08:09;8.25;;;3.45;;
78752;SDS011;68072;51.688;7.842;2023-07-31T04:10:34;10.80;;;4.27;;
78752;SDS011;68072;51.688;7.842;2023-07-31T04:13:00;11.43;;;3.40;;
78752;SDS011;68072;51.688;7.842;2023-07-31T04:15:28;10.60;;;2.67;;
78752;SDS011;68072;51.688;7.842;2023-07-31T04:17:53;10.07;;;3.93;;
78752;SDS011;68072;51.688;7.842;2023-07-31T04:20:18;13.50;;;3.80;;
78752;SDS011;68072;51.688;7.842;2023-07-31T04:22:44;10.20;;;3.23;;
78752;SDS011;68072;51.688;7.842;2023-07-31T04:25:09;9.80;;;3.60;;
78752;SDS011;68072;51.688;7.842;2023-07-31T04:27:34;9.27;;;3.80;;
78752;SDS011;68072;51.688;7.842;2023-07-31T04:29:59;8.07;;;3.30;;
78752;SDS011;68072;51.688;7.842;2023-07-31T04:32:24;10.00;;;3.07;;
78752;SDS011;68072;51.688;7.842;2023-07-31T04:34:50;6.00;;;3.50;;
78752;SDS011;68072;51.688;7.842;2023-07-31T04:37:15;9.03;;;3.50;;
78752;SDS011;68072;51.688;7.842;2023-07-31T04:39:40;10.23;;;3.70;;
78752;SDS011;68072;51.688;7.842;2023-07-31T04:42:05;6.70;;;3.17;;
78752;SDS011;68072;51.688;7.842;2023-07-31T04:44:31;11.30;;;3.70;;
78752;SDS011;68072;51.688;7.842;2023-07-31T04:46:56;8.93;;;3.57;;
78752;SDS011;68072;51.688;7.842;2023-07-31T04:49:21;11.03;;;2.93;;
78752;SDS011;68072;51.688;7.842;2023-07-31T04:51:47;15.38;;;4.63;;
78752;SDS011;68072;51.688;7.842;2023-07-31T04:54:12;10.77;;;3.60;;
78752;SDS011;68072;51.688;7.842;2023-07-31T04:56:39;5.78;;;2.88;;
78752;SDS011;68072;51.688;7.842;2023-07-31T04:59:05;13.37;;;3.80;;
78752;SDS011;68072;51.688;7.842;2023-07-31T05:01:30;9.03;;;3.47;;
78752;SDS011;68072;51.688;7.842;2023-07-31T05:03:55;11.07;;;3.57;;
78752;SDS011;68072;51.688;7.842;2023-07-31T05:06:20;7.03;;;3.23;;
78752;SDS011;68072;51.688;7.842;2023-07-31T05:08:46;7.50;;;2.67;;
78752;SDS011;68072;51.688;7.842;2023-07-31T05:11:11;6.20;;;3.03;;
78752;SDS011;68072;51.688;7.842;2023-07-31T05:13:36;6.82;;;2.88;;
78752;SDS011;68072;51.688;7.842;2023-07-31T05:16:02;7.87;;;3.50;;
78752;SDS011;68072;51.688;7.842;2023-07-31T05:18:27;9.17;;;3.47;;
78752;SDS011;68072;51.688;7.842;2023-07-31T05:20:52;8.67;;;3.33;;
78752;SDS011;68072;51.688;7.842;2023-07-31T05:23:17;11.43;;;3.20;;
78752;SDS011;68072;51.688;7.842;2023-07-31T05:25:42;6.73;;;3.03;;
78752;SDS011;68072;51.688;7.842;2023-07-31T05:28:08;8.53;;;3.63;;
78752;SDS011;68072;51.688;7.842;2023-07-31T05:30:33;3.60;;;2.30;;
78752;SDS011;68072;51.688;7.842;2023-07-31T05:32:58;7.93;;;3.33;;
78752;SDS011;68072;51.688;7.842;2023-07-31T05:35:23;13.30;;;4.03;;
78752;SDS011;68072;51.688;7.842;2023-07-31T05:37:49;5.63;;;2.80;;
78752;SDS011;68072;51.688;7.842;2023-07-31T05:40:14;8.17;;;3.73;;
78752;SDS011;68072;51.688;7.842;2023-07-31T05:42:39;9.07;;;3.28;;
78752;SDS011;68072;51.688;7.842;2023-07-31T05:45:06;8.27;;;2.95;;
78752;SDS011;68072;51.688;7.842;2023-07-31T05:49:56;5.80;;;3.33;;
78752;SDS011;68072;51.688;7.842;2023-07-31T05:52:21;6.20;;;2.50;;
78752;SDS011;68072;51.688;7.842;2023-07-31T05:54:47;8.50;;;3.00;;
78752;SDS011;68072;51.688;7.842;2023-07-31T05:57:12;10.15;;;3.60;;
78752;SDS011;68072;51.688;7.842;2023-07-31T05:59:37;9.60;;;3.40;;
78752;SDS011;68072;51.688;7.842;2023-07-31T06:02:02;4.10;;;2.93;;
78752;SDS011;68072;51.688;7.842;2023-07-31T06:04:28;9.63;;;3.37;;
78752;SDS011;68072;51.688;7.842;2023-07-31T06:06:53;6.70;;;3.20;;
78752;SDS011;68072;51.688;7.842;2023-07-31T06:09:18;11.38;;;3.20;;
78752;SDS011;68072;51.688;7.842;2023-07-31T06:11:45;8.13;;;3.30;;
78752;SDS011;68072;51.688;7.842;2023-07-31T06:14:10;6.82;;;3.83;;
78752;SDS011;68072;51.688;7.842;2023-07-31T06:16:36;6.20;;;3.63;;
78752;SDS011;68072;51.688;7.842;2023-07-31T06:19:01;8.30;;;3.17;;
78752;SDS011;68072;51.688;7.842;2023-07-31T06:21:26;8.20;;;3.47;;
78752;SDS011;68072;51.688;7.842;2023-07-31T06:23:51;8.02;;;3.50;;
78752;SDS011;68072;51.688;7.842;2023-07-31T06:26:17;10.23;;;3.40;;
78752;SDS011;68072;51.688;7.842;2023-07-31T06:28:42;10.63;;;3.70;;
78752;SDS011;68072;51.688;7.842;2023-07-31T06:31:07;9.40;;;3.23;;
78752;SDS011;68072;51.688;7.842;2023-07-31T06:33:32;9.93;;;3.77;;
78752;SDS011;68072;51.688;7.842;2023-07-31T06:35:58;5.93;;;3.70;;
78752;SDS011;68072;51.688;7.842;2023-07-31T06:38:24;12.33;;;3.93;;
78752;SDS011;68072;51.688;7.842;2023-07-31T06:40:50;8.90;;;4.30;;
78752;SDS011;68072;51.688;7.842;2023-07-31T06:43:15;8.60;;;4.03;;
78752;SDS011;68072;51.688;7.842;2023-07-31T06:45:41;10.50;;;4.13;;
78752;SDS011;68072;51.688;7.842;2023-07-31T06:48:06;10.73;;;3.70;;
78752;SDS011;68072;51.688;7.842;2023-07-31T06:50:31;8.60;;;3.57;;
78752;SDS011;68072;51.688;7.842;2023-07-31T06:52:57;7.13;;;3.97;;
78752;SDS011;68072;51.688;7.842;2023-07-31T06:55:22;9.63;;;3.97;;
78752;SDS011;68072;51.688;7.842;2023-07-31T06:57:48;7.70;;;3.85;;
78752;SDS011;68072;51.688;7.842;2023-07-31T07:00:14;8.68;;;3.88;;
78752;SDS011;68072;51.688;7.842;2023-07-31T07:02:39;8.18;;;3.75;;
78752;SDS011;68072;51.688;7.842;2023-07-31T07:05:04;6.40;;;3.15;;
78752;SDS011;68072;51.688;7.842;2023-07-31T07:07:30;7.23;;;3.87;;
78752;SDS011;68072;51.688;7.842;2023-07-31T07:09:55;7.50;;;3.57;;
78752;SDS011;68072;51.688;7.842;2023-07-31T07:12:20;8.03;;;3.80;;
78752;SDS011;68072;51.688;7.842;2023-07-31T07:14:45;10.20;;;4.33;;
78752;SDS011;68072;51.688;7.842;2023-07-31T07:17:12;8.48;;;4.22;;
78752;SDS011;68072;51.688;7.842;2023-07-31T07:19:40;9.48;;;5.05;;
78752;SDS011;68072;51.688;7.842;2023-07-31T07:22:05;8.50;;;3.95;;
78752;SDS011;68072;51.688;7.842;2023-07-31T07:24:30;13.23;;;5.77;;
78752;SDS011;68072;51.688;7.842;2023-07-31T07:26:56;9.57;;;4.67;;
78752;SDS011;68072;51.688;7.842;2023-07-31T07:29:21;16.57;;;5.70;;
78752;SDS011;68072;51.688;7.842;2023-07-31T07:31:46;8.45;;;4.65;;
78752;SDS011;68072;51.688;7.842;2023-07-31T07:34:12;10.20;;;5.13;;
78752;SDS011;68072;51.688;7.842;2023-07-31T07:36:38;9.50;;;4.50;;
78752;SDS011;68072;51.688;7.842;2023-07-31T07:39:03;9.65;;;4.80;;
78752;SDS011;68072;51.688;7.842;2023-07-31T07:41:28;12.57;;;5.07;;
78752;SDS011;68072;51.688;7.842;2023-07-31T07:43:54;16.33;;;5.80;;
78752;SDS011;68072;51.688;7.842;2023-07-31T07:46:19;8.53;;;5.10;;
78752;SDS011;68072;51.688;7.842;2023-07-31T07:48:44;10.17;;;5.37;;
78752;SDS011;68072;51.688;7.842;2023-07-31T07:51:09;11.10;;;5.27;;
78752;SDS011;68072;51.688;7.842;2023-07-31T07:53:35;12.07;;;5.20;;
78752;SDS011;68072;51.688;7.842;2023-07-31T07:56:01;8.93;;;4.68;;
78752;SDS011;68072;51.688;7.842;2023-07-31T07:58:26;7.05;;;4.47;;
78752;SDS011;68072;51.688;7.842;2023-07-31T08:00:52;9.47;;;4.70;;
78752;SDS011;68072;51.688;7.842;2023-07-31T08:03:17;10.20;;;5.07;;
78752;SDS011;68072;51.688;7.842;2023-07-31T08:05:43;9.13;;;4.32;;
78752;SDS011;68072;51.688;7.842;2023-07-31T08:08:08;12.80;;;5.75;;
78752;SDS011;68072;51.688;7.842;2023-07-31T08:10:34;9.57;;;4.63;;
78752;SDS011;68072;51.688;7.842;2023-07-31T08:12:59;7.20;;;4.00;;
78752;SDS011;68072;51.688;7.842;2023-07-31T08:15:24;8.50;;;4.33;;
78752;SDS011;68072;51.688;7.842;2023-07-31T08:17:49;7.27;;;4.17;;
78752;SDS011;68072;51.688;7.842;2023-07-31T08:20:15;8.63;;;4.18;;
78752;SDS011;68072;51.688;7.842;2023-07-31T08:22:40;5.43;;;3.60;;
78752;SDS011;68072;51.688;7.842;2023-07-31T08:25:05;8.83;;;3.97;;
78752;SDS011;68072;51.688;7.842;2023-07-31T08:27:31;6.30;;;3.92;;
78752;SDS011;68072;51.688;7.842;2023-07-31T08:29:57;8.68;;;3.88;;
78752;SDS011;68072;51.688;7.842;2023-07-31T08:32:22;7.40;;;4.10;;
78752;SDS011;68072;51.688;7.842;2023-07-31T08:34:47;8.97;;;4.47;;
78752;SDS011;68072;51.688;7.842;2023-07-31T08:37:14;5.90;;;4.10;;
78752;SDS011;68072;51.688;7.842;2023-07-31T08:39:39;7.43;;;3.70;;
78752;SDS011;68072;51.688;7.842;2023-07-31T08:42:07;7.20;;;4.28;;
78752;SDS011;68072;51.688;7.842;2023-07-31T08:44:42;7.13;;;3.42;;
78752;SDS011;68072;51.688;7.842;2023-07-31T08:47:08;6.82;;;4.07;;
78752;SDS011;68072;51.688;7.842;2023-07-31T08:49:34;7.50;;;3.47;;
78752;SDS011;68072;51.688;7.842;2023-07-31T08:52:00;7.40;;;3.45;;
78752;SDS011;68072;51.688;7.842;2023-07-31T08:54:25;7.67;;;3.53;;
78752;SDS011;68072;51.688;7.842;2023-07-31T08:56:54;4.90;;;3.25;;
78752;SDS011;68072;51.688;7.842;2023-07-31T08:59:19;5.78;;;3.55;;
78752;SDS011;68072;51.688;7.842;2023-07-31T09:01:48;4.90;;;2.72;;
78752;SDS011;68072;51.688;7.842;2023-07-31T09:04:14;6.35;;;3.05;;
78752;SDS011;68072;51.688;7.842;2023-07-31T09:06:41;5.80;;;3.13;;
78752;SDS011;68072;51.688;7.842;2023-07-31T09:09:07;8.98;;;3.50;;
78752;SDS011;68072;51.688;7.842;2023-07-31T09:11:32;6.40;;;3.70;;
78752;SDS011;68072;51.688;7.842;2023-07-31T09:13:57;4.20;;;3.10;;
78752;SDS011;68072;51.688;7.842;2023-07-31T09:16:29;6.07;;;3.10;;
78752;SDS011;68072;51.688;7.842;2023-07-31T09:18:56;8.20;;;3.47;;
78752;SDS011;68072;51.688;7.842;2023-07-31T09:21:23;7.50;;;2.97;;
78752;SDS011;68072;51.688;7.842;2023-07-31T09:23:48;6.97;;;4.00;;
78752;SDS011;68072;51.688;7.842;2023-07-31T09:29:00;6.57;;;3.08;;
78752;SDS011;68072;51.688;7.842;2023-07-31T09:31:59;7.50;;;3.22;;
78752;SDS011;68072;51.688;7.842;2023-07-31T09:34:17;7.63;;;3.53;;
78752;SDS011;68072;51.688;7.842;2023-07-31T09:36:43;7.05;;;3.50;;
78752;SDS011;68072;51.688;7.842;2023-07-31T09:41:39;5.65;;;1.98;;
78752;SDS011;68072;51.688;7.842;2023-07-31T09:44:04;2.35;;;1.88;;
78752;SDS011;68072;51.688;7.842;2023-07-31T09:46:29;3.93;;;2.27;;
78752;SDS011;68072;51.688;7.842;2023-07-31T09:49:02;2.00;;;1.85;;
78752;SDS011;68072;51.688;7.842;2023-07-31T09:51:28;3.80;;;2.20;;
78752;SDS011;68072;51.688;7.842;2023-07-31T09:53:56;4.57;;;2.22;;
78752;SDS011;68072;51.688;7.842;2023-07-31T09:56:21;7.03;;;2.60;;
78752;SDS011;68072;51.688;7.842;2023-07-31T09:58:46;4.80;;;2.15;;
78752;SDS011;68072;51.688;7.842;2023-07-31T10:01:12;2.28;;;2.08;;
78752;SDS011;68072;51.688;7.842;2023-07-31T10:03:38;3.05;;;2.10;;
78752;SDS011;68072;51.688;7.842;2023-07-31T10:06:04;2.90;;;2.17;;
78752;SDS011;68072;51.688;7.842;2023-07-31T10:08:30;3.22;;;2.22;;
78752;SDS011;68072;51.688;7.842;2023-07-31T10:11:00;4.95;;;2.92;;
78752;SDS011;68072;51.688;7.842;2023-07-31T10:13:25;4.30;;;3.65;;
78752;SDS011;68072;51.688;7.842;2023-07-31T10:15:52;4.63;;;2.55;;
78752;SDS011;68072;51.688;7.842;2023-07-31T10:18:18;3.65;;;2.40;;
78752;SDS011;68072;51.688;7.842;2023-07-31T10:20:44;3.17;;;2.05;;
78752;SDS011;68072;51.688;7.842;2023-07-31T10:23:09;3.65;;;2.50;;
78752;SDS011;68072;51.688;7.842;2023-07-31T10:25:35;3.53;;;2.45;;
78752;SDS011;68072;51.688;7.842;2023-07-31T10:28:01;3.40;;;2.58;;
78752;SDS011;68072;51.688;7.842;2023-07-31T10:30:27;2.67;;;2.10;;
78752;SDS011;68072;51.688;7.842;2023-07-31T10:32:54;3.20;;;2.83;;
78752;SDS011;68072;51.688;7.842;2023-07-31T10:35:20;3.67;;;2.85;;
78752;SDS011;68072;51.688;7.842;2023-07-31T10:37:47;4.45;;;2.90;;
78752;SDS011;68072;51.688;7.842;2023-07-31T10:40:13;5.93;;;2.67;;
78752;SDS011;68072;51.688;7.842;2023-07-31T10:42:50;5.93;;;2.88;;
78752;SDS011;68072;51.688;7.842;2023-07-31T10:45:26;4.25;;;2.50;;
78752;SDS011;68072;51.688;7.842;2023-07-31T10:47:57;2.75;;;2.53;;
78752;SDS011;68072;51.688;7.842;2023-07-31T10:50:23;4.60;;;2.92;;
78752;SDS011;68072;51.688;7.842;2023-07-31T10:52:50;4.13;;;2.83;;
78752;SDS011;68072;51.688;7.842;2023-07-31T10:55:25;2.75;;;2.38;;
78752;SDS011;68072;51.688;7.842;2023-07-31T10:57:51;7.22;;;2.53;;
78752;SDS011;68072;51.688;7.842;2023-07-31T11:00:20;7.93;;;2.50;;
78752;SDS011;68072;51.688;7.842;2023-07-31T11:05:40;2.38;;;1.88;;
78752;SDS011;68072;51.688;7.842;2023-07-31T11:10:37;3.88;;;2.33;;
78752;SDS011;68072;51.688;7.842;2023-07-31T11:13:03;3.40;;;2.30;;
78752;SDS011;68072;51.688;7.842;2023-07-31T11:15:29;2.80;;;1.77;;
78752;SDS011;68072;51.688;7.842;2023-07-31T11:17:55;3.77;;;2.10;;
78752;SDS011;68072;51.688;7.842;2023-07-31T11:20:23;6.63;;;1.80;;
78752;SDS011;68072;51.688;7.842;2023-07-31T11:22:48;4.20;;;1.70;;
78752;SDS011;68072;51.688;7.842;2023-07-31T11:25:14;1.70;;;1.60;;
78752;SDS011;68072;51.688;7.842;2023-07-31T11:27:39;1.60;;;1.50;;
78752;SDS011;68072;51.688;7.842;2023-07-31T11:30:08;2.88;;;2.10;;
78752;SDS011;68072;51.688;7.842;2023-07-31T11:32:36;2.30;;;1.42;;
78752;SDS011;68072;51.688;7.842;2023-07-31T11:35:01;2.28;;;1.73;;
78752;SDS011;68072;51.688;7.842;2023-07-31T11:37:47;1.70;;;1.60;;
78752;SDS011;68072;51.688;7.842;2023-07-31T11:40:12;1.42;;;1.33;;
78752;SDS011;68072;51.688;7.842;2023-07-31T11:42:37;1.75;;;1.65;;
78752;SDS011;68072;51.688;7.842;2023-07-31T11:45:03;2.70;;;1.90;;
78752;SDS011;68072;51.688;7.842;2023-07-31T11:47:29;2.45;;;2.00;;
78752;SDS011;68072;51.688;7.842;2023-07-31T11:49:55;3.15;;;1.42;;
78752;SDS011;68072;51.688;7.842;2023-07-31T11:52:21;1.90;;;1.57;;
78752;SDS011;68072;51.688;7.842;2023-07-31T11:54:48;2.10;;;1.95;;
78752;SDS011;68072;51.688;7.842;2023-07-31T11:57:13;1.87;;;1.77;;
78752;SDS011;68072;51.688;7.842;2023-07-31T11:59:39;4.32;;;2.42;;
78752;SDS011;68072;51.688;7.842;2023-07-31T12:02:04;2.47;;;2.27;;
78752;SDS011;68072;51.688;7.842;2023-07-31T12:04:29;3.10;;;2.00;;
78752;SDS011;68072;51.688;7.842;2023-07-31T12:06:55;2.33;;;1.88;;
78752;SDS011;68072;51.688;7.842;2023-07-31T12:09:20;3.77;;;2.60;;
78752;SDS011;68072;51.688;7.842;2023-07-31T12:11:46;3.53;;;2.60;;
78752;SDS011;68072;51.688;7.842;2023-07-31T12:16:36;7.35;;;2.70;;
78752;SDS011;68072;51.688;7.842;2023-07-31T12:19:02;5.90;;;2.57;;
78752;SDS011;68072;51.688;7.842;2023-07-31T12:21:27;3.78;;;2.20;;
78752;SDS011;68072;51.688;7.842;2023-07-31T12:23:52;3.67;;;2.70;;
78752;SDS011;68072;51.688;7.842;2023-07-31T12:26:19;3.80;;;2.85;;
78752;SDS011;68072;51.688;7.842;2023-07-31T12:28:45;4.07;;;2.88;;
78752;SDS011;68072;51.688;7.842;2023-07-31T12:31:11;3.65;;;2.90;;
78752;SDS011;68072;51.688;7.842;2023-07-31T12:33:38;2.90;;;2.60;;
78752;SDS011;68072;51.688;7.842;2023-07-31T12:36:04;3.92;;;3.10;;
78752;SDS011;68072;51.688;7.842;2023-07-31T12:38:31;4.43;;;3.03;;
78752;SDS011;68072;51.688;7.842;2023-07-31T12:40:56;2.90;;;2.30;;
78752;SDS011;68072;51.688;7.842;2023-07-31T12:43:22;3.63;;;2.23;;
78752;SDS011;68072;51.688;7.842;2023-07-31T12:45:47;7.30;;;2.43;;
78752;SDS011;68072;51.688;7.842;2023-07-31T12:48:13;5.47;;;2.13;;
78752;SDS011;68072;51.688;7.842;2023-07-31T12:50:38;4.97;;;2.50;;
78752;SDS011;68072;51.688;7.842;2023-07-31T12:53:04;2.92;;;2.20;;
78752;SDS011;68072;51.688;7.842;2023-07-31T12:55:29;2.35;;;2.15;;
78752;SDS011;68072;51.688;7.842;2023-07-31T12:57:55;2.50;;;2.30;;
78752;SDS011;68072;51.688;7.842;2023-07-31T13:02:46;4.53;;;1.50;;
78752;SDS011;68072;51.688;7.842;2023-07-31T13:05:11;2.17;;;1.73;;
78752;SDS011;68072;51.688;7.842;2023-07-31T13:07:38;2.30;;;2.10;;
78752;SDS011;68072;51.688;7.842;2023-07-31T13:10:03;1.73;;;1.63;;
78752;SDS011;68072;51.688;7.842;2023-07-31T13:12:29;2.55;;;1.90;;
78752;SDS011;68072;51.688;7.842;2023-07-31T13:14:54;2.20;;;1.97;;
78752;SDS011;68072;51.688;7.842;2023-07-31T13:17:19;3.17;;;2.13;;
78752;SDS011;68072;51.688;7.842;2023-07-31T13:19:45;1.77;;;1.67;;
78752;SDS011;68072;51.688;7.842;2023-07-31T13:24:35;4.00;;;2.10;;
78752;SDS011;68072;51.688;7.842;2023-07-31T13:27:00;2.60;;;2.20;;
78752;SDS011;68072;51.688;7.842;2023-07-31T13:29:26;2.30;;;2.10;;
78752;SDS011;68072;51.688;7.842;2023-07-31T13:31:52;3.50;;;1.60;;
78752;SDS011;68072;51.688;7.842;2023-07-31T13:34:17;1.67;;;1.58;;
78752;SDS011;68072;51.688;7.842;2023-07-31T13:36:43;3.67;;;1.90;;
78752;SDS011;68072;51.688;7.842;2023-07-31T13:39:08;1.47;;;1.33;;
78752;SDS011;68072;51.688;7.842;2023-07-31T13:41:33;1.70;;;1.60;;
78752;SDS011;68072;51.688;7.842;2023-07-31T13:43:58;1.92;;;1.70;;
78752;SDS011;68072;51.688;7.842;2023-07-31T13:46:24;1.83;;;1.30;;
78752;SDS011;68072;51.688;7.842;2023-07-31T13:48:50;2.25;;;1.75;;
78752;SDS011;68072;51.688;7.842;2023-07-31T13:51:15;2.33;;;1.50;;
78752;SDS011;68072;51.688;7.842;2023-07-31T13:53:41;1.50;;;1.40;;
78752;SDS011;68072;51.688;7.842;2023-07-31T13:56:06;1.30;;;1.20;;
78752;SDS011;68072;51.688;7.842;2023-07-31T13:58:32;2.27;;;1.57;;
78752;SDS011;68072;51.688;7.842;2023-07-31T14:03:22;1.53;;;1.43;;
78752;SDS011;68072;51.688;7.842;2023-07-31T14:05:47;1.47;;;1.37;;
78752;SDS011;68072;51.688;7.842;2023-07-31T14:08:13;1.37;;;1.27;;
78752;SDS011;68072;51.688;7.842;2023-07-31T14:13:03;1.67;;;1.55;;
78752;SDS011;68072;51.688;7.842;2023-07-31T14:15:28;1.50;;;1.40;;
78752;SDS011;68072;51.688;7.842;2023-07-31T14:20:19;1.60;;;1.23;;
78752;SDS011;68072;51.688;7.842;2023-07-31T14:22:44;1.40;;;1.30;;
78752;SDS011;68072;51.688;7.842;2023-07-31T14:25:09;1.40;;;1.23;;
78752;SDS011;68072;51.688;7.842;2023-07-31T14:27:35;1.10;;;1.10;;
78752;SDS011;68072;51.688;7.842;2023-07-31T14:30:01;1.30;;;1.20;;
78752;SDS011;68072;51.688;7.842;2023-07-31T14:32:26;1.77;;;1.33;;
78752;SDS011;68072;51.688;7.842;2023-07-31T14:34:51;1.10;;;1.00;;
78752;SDS011;68072;51.688;7.842;2023-07-31T14:37:17;1.50;;;1.40;;
78752;SDS011;68072;51.688;7.842;2023-07-31T14:39:42;1.48;;;1.38;;
78752;SDS011;68072;51.688;7.842;2023-07-31T14:42:08;8.10;;;2.00;;
78752;SDS011;68072;51.688;7.842;2023-07-31T14:46:58;1.45;;;1.35;;
78752;SDS011;68072;51.688;7.842;2023-07-31T14:51:49;1.80;;;1.27;;
78752;SDS011;68072;51.688;7.842;2023-07-31T14:54:14;1.93;;;1.50;;
78752;SDS011;68072;51.688;7.842;2023-07-31T14:59:04;1.73;;;1.63;;
78752;SDS011;68072;51.688;7.842;2023-07-31T15:03:55;2.10;;;1.40;;
78752;SDS011;68072;51.688;7.842;2023-07-31T15:08:45;1.60;;;1.50;;
78752;SDS011;68072;51.688;7.842;2023-07-31T15:13:35;1.47;;;1.37;;
78752;SDS011;68072;51.688;7.842;2023-07-31T15:18:26;1.40;;;1.23;;
78752;SDS011;68072;51.688;7.842;2023-07-31T15:23:16;2.13;;;1.50;;
78752;SDS011;68072;51.688;7.842;2023-07-31T15:28:07;1.50;;;1.40;;
78752;SDS011;68072;51.688;7.842;2023-07-31T15:30:34;2.75;;;1.80;;
78752;SDS011;68072;51.688;7.842;2023-07-31T15:33:00;2.95;;;1.58;;